createdAt,value
2022-11-03T00:01:51.328Z,38.67
2022-11-03T00:04:21.438Z,38.44
2022-11-03T00:06:51.546Z,38.54
2022-11-03T00:09:21.068Z,38.27
2022-11-03T00:11:51.791Z,38.28
2022-11-03T00:14:20.607Z,38.31
2022-11-03T00:16:50.701Z,38.37
2022-11-03T00:19:18.766Z,38.33
2022-11-03T00:21:47.286Z,38.37
2022-11-03T00:24:15.354Z,38.57
2022-11-03T00:26:43.433Z,38.50
2022-11-03T00:29:13.088Z,38.26
2022-11-03T00:31:43.515Z,38.14
2022-11-03T00:34:13.547Z,37.83
2022-11-03T00:36:43.168Z,37.76
2022-11-03T00:39:11.865Z,37.73
2022-11-03T00:41:40.754Z,37.74
2022-11-03T00:44:10.740Z,37.41
2022-11-03T00:46:39.791Z,37.31
2022-11-03T00:49:08.022Z,37.08
2022-11-03T00:51:37.709Z,37.36
2022-11-03T00:54:07.265Z,37.35
2022-11-03T00:56:37.435Z,37.15
2022-11-03T00:59:07.894Z,37.30
2022-11-03T01:04:40.424Z,37.73
2022-11-03T01:07:09.937Z,38.17
2022-11-03T01:09:39.705Z,38.08
2022-11-03T01:12:10.396Z,38.15
2022-11-03T01:14:40.933Z,37.74
2022-11-03T01:17:11.394Z,37.67
2022-11-03T01:19:39.509Z,37.50
2022-11-03T01:22:10.847Z,37.48
2022-11-03T01:24:40.107Z,38.11
2022-11-03T01:27:08.345Z,38.52
2022-11-03T01:29:36.372Z,38.62
2022-11-03T01:32:04.446Z,38.63
2022-11-03T01:34:32.860Z,38.34
2022-11-03T01:37:00.882Z,37.98
2022-11-03T01:39:30.484Z,38.56
2022-11-03T01:41:58.547Z,38.27
2022-11-03T01:44:33.292Z,38.18
2022-11-03T01:47:07.449Z,38.04
2022-11-03T01:49:40.148Z,38.20
2022-11-03T01:52:12.916Z,38.42
2022-11-03T01:54:44.524Z,38.33
2022-11-03T01:57:16.893Z,38.35
2022-11-03T01:59:46.373Z,38.30
2022-11-03T02:02:14.734Z,38.40
2022-11-03T02:04:43.879Z,38.11
2022-11-03T02:07:19.981Z,37.96
2022-11-03T02:09:49.484Z,38.10
2022-11-03T02:12:19.305Z,38.29
2022-11-03T02:14:54.567Z,38.11
2022-11-03T02:17:24.230Z,38.19
2022-11-03T02:19:58.846Z,38.02
2022-11-03T02:22:55.382Z,37.87
2022-11-03T02:25:44.561Z,38.07
2022-11-03T02:28:14.783Z,37.88
2022-11-03T02:30:48.276Z,38.08
2022-11-03T02:33:32.953Z,37.76
2022-11-03T02:36:07.808Z,37.32
2022-11-03T02:38:40.594Z,37.73
2022-11-03T02:41:11.391Z,37.39
2022-11-03T02:43:40.994Z,37.25
2022-11-03T02:46:10.284Z,37.19
2022-11-03T02:48:38.727Z,36.97
2022-11-03T02:51:07.990Z,37.05
2022-11-03T02:53:41.692Z,36.89
2022-11-03T02:56:15.274Z,36.76
2022-11-03T02:58:54.083Z,36.74
2022-11-03T03:01:28.844Z,36.53
2022-11-03T03:04:00.994Z,36.18
2022-11-03T03:06:34.486Z,36.53
2022-11-03T03:09:07.305Z,36.27
2022-11-03T03:11:42.238Z,36.39
2022-11-03T03:14:14.184Z,36.45
2022-11-03T03:16:49.921Z,36.62
2022-11-03T03:19:25.229Z,36.47
2022-11-03T03:21:55.794Z,36.30
2022-11-03T03:24:32.874Z,36.48
2022-11-03T03:27:05.653Z,36.43
2022-11-03T03:29:39.917Z,36.62
2022-11-03T03:32:11.084Z,36.50
2022-11-03T03:34:43.106Z,36.62
2022-11-03T03:37:14.928Z,36.63
2022-11-03T03:39:46.738Z,36.79
2022-11-03T03:42:17.500Z,36.80
2022-11-03T03:44:47.763Z,37.04
2022-11-03T03:47:21.719Z,37.12
2022-11-03T03:49:50.063Z,37.12
2022-11-03T03:52:18.835Z,37.10
2022-11-03T03:54:46.909Z,37.20
2022-11-03T03:57:19.727Z,36.86
2022-11-03T03:59:48.025Z,36.88
2022-11-03T04:02:16.405Z,37.27
2022-11-03T04:04:44.709Z,36.92
2022-11-03T04:07:29.989Z,36.72
2022-11-03T04:09:58.129Z,36.56
2022-11-03T04:12:44.737Z,36.70
2022-11-03T04:15:31.970Z,36.86
2022-11-03T04:18:17.474Z,36.99
2022-11-03T04:21:03.233Z,36.63
2022-11-03T04:23:31.324Z,37.00
2022-11-03T04:26:01.250Z,36.95
2022-11-03T04:28:30.910Z,36.88
2022-11-03T04:31:00.055Z,36.86
2022-11-03T04:33:30.265Z,36.79
2022-11-03T04:36:00.499Z,36.64
2022-11-03T04:38:31.301Z,36.63
2022-11-03T04:41:00.925Z,36.48
2022-11-03T04:43:36.329Z,36.41
2022-11-03T04:46:04.506Z,36.64
2022-11-03T04:48:35.614Z,36.55
2022-11-03T04:51:11.535Z,36.66
2022-11-03T04:53:41.009Z,36.85
2022-11-03T04:56:16.623Z,36.93
2022-11-03T04:58:48.083Z,36.82
2022-11-03T05:01:23.966Z,36.92
2022-11-03T05:03:54.403Z,37.01
2022-11-03T05:06:24.959Z,37.02
2022-11-03T05:08:57.661Z,37.12
2022-11-03T05:11:31.855Z,36.99
2022-11-03T05:14:04.279Z,37.05
2022-11-03T05:16:33.940Z,37.02
2022-11-03T05:19:02.045Z,37.11
2022-11-03T05:21:30.477Z,37.35
2022-11-03T05:24:05.099Z,37.21
2022-11-03T05:26:36.684Z,37.09
2022-11-03T05:29:14.927Z,37.03
2022-11-03T05:31:45.039Z,36.96
2022-11-03T05:34:28.104Z,36.82
2022-11-03T05:36:56.160Z,36.95
2022-11-03T05:39:30.883Z,36.98
2022-11-03T05:42:00.445Z,36.77
2022-11-03T05:44:36.897Z,36.71
2022-11-03T05:47:15.167Z,36.63
2022-11-03T05:49:43.341Z,36.65
2022-11-03T05:52:17.321Z,36.75
2022-11-03T05:54:45.499Z,36.65
2022-11-03T05:57:15.655Z,36.70
2022-11-03T05:59:47.056Z,36.22
2022-11-03T06:02:30.362Z,36.18
2022-11-03T06:04:59.388Z,36.29
2022-11-03T06:07:31.248Z,36.12
2022-11-03T06:10:00.607Z,36.38
2022-11-03T06:12:31.837Z,36.43
2022-11-03T06:15:01.459Z,36.34
2022-11-03T06:17:30.728Z,36.26
2022-11-03T06:20:01.717Z,36.10
2022-11-03T06:22:32.623Z,36.14
2022-11-03T06:25:02.823Z,36.09
2022-11-03T06:27:35.455Z,36.04
2022-11-03T06:30:21.405Z,36.25
2022-11-03T06:32:49.927Z,36.66
2022-11-03T06:35:19.123Z,37.51
2022-11-03T06:37:47.440Z,38.33
2022-11-03T06:40:34.243Z,38.68
2022-11-03T06:43:15.001Z,39.36
2022-11-03T06:45:51.409Z,40.13
2022-11-03T06:48:26.153Z,39.85
2022-11-03T06:50:54.911Z,40.90
2022-11-03T06:53:26.497Z,41.64
2022-11-03T06:55:55.317Z,41.30
2022-11-03T06:58:28.595Z,41.67
2022-11-03T07:01:03.471Z,42.57
2022-11-03T07:03:35.226Z,42.42
2022-11-03T07:06:12.942Z,42.87
2022-11-03T07:08:43.589Z,42.18
2022-11-03T07:11:16.356Z,42.13
2022-11-03T07:13:45.037Z,41.41
2022-11-03T07:16:27.669Z,41.89
2022-11-03T07:18:55.946Z,41.79
2022-11-03T07:21:37.537Z,42.15
2022-11-03T07:24:18.523Z,41.53
2022-11-03T07:26:46.694Z,41.90
2022-11-03T07:29:21.192Z,42.32
2022-11-03T07:31:53.344Z,42.15
2022-11-03T07:34:25.018Z,41.93
2022-11-03T07:36:56.068Z,41.73
2022-11-03T07:39:24.625Z,42.01
2022-11-03T07:41:53.189Z,41.87
2022-11-03T07:44:22.443Z,41.08
2022-11-03T07:46:52.330Z,42.02
2022-11-03T07:49:28.344Z,41.68
2022-11-03T07:51:57.795Z,40.72
2022-11-03T07:54:29.978Z,40.57
2022-11-03T07:57:01.026Z,40.48
2022-11-03T07:59:33.666Z,40.57
2022-11-03T08:02:04.322Z,40.67
2022-11-03T08:04:35.530Z,41.25
2022-11-03T08:07:03.678Z,41.16
2022-11-03T08:09:31.761Z,40.30
2022-11-03T08:12:00.538Z,40.81
2022-11-03T08:14:28.602Z,40.61
2022-11-03T08:16:56.762Z,39.57
2022-11-03T08:19:26.430Z,39.80
2022-11-03T08:21:54.583Z,39.76
2022-11-03T08:24:22.639Z,40.06
2022-11-03T08:26:50.699Z,40.38
2022-11-03T08:29:19.220Z,40.14
2022-11-03T08:31:47.593Z,40.33
2022-11-03T08:34:15.903Z,40.12
2022-11-03T08:36:46.712Z,40.23
2022-11-03T08:39:14.889Z,38.82
2022-11-03T08:41:43.097Z,38.79
2022-11-03T08:44:11.369Z,38.00
2022-11-03T08:46:39.527Z,37.94
2022-11-03T08:49:07.601Z,37.80
2022-11-03T08:51:37.899Z,38.24
2022-11-03T08:54:10.945Z,38.04
2022-11-03T08:56:39.034Z,37.73
2022-11-03T08:59:07.046Z,38.20
2022-11-03T09:01:35.235Z,37.94
2022-11-03T09:04:03.517Z,37.31
2022-11-03T09:06:31.613Z,37.83
2022-11-03T09:11:49.417Z,36.86
2022-11-03T09:14:17.634Z,36.41
2022-11-03T09:16:46.009Z,36.74
2022-11-03T09:19:14.808Z,37.42
2022-11-03T09:21:42.906Z,37.17
2022-11-03T09:24:11.047Z,37.03
2022-11-03T09:26:39.672Z,36.05
2022-11-03T09:29:09.293Z,37.49
2022-11-03T09:31:37.450Z,37.60
2022-11-03T09:34:05.585Z,36.98
2022-11-03T09:36:33.871Z,37.15
2022-11-03T09:39:01.905Z,36.63
2022-11-03T09:41:53.750Z,36.49
2022-11-03T09:44:22.152Z,36.13
2022-11-03T09:46:55.432Z,36.71
2022-11-03T09:49:26.369Z,36.00
2022-11-03T09:51:55.900Z,36.17
2022-11-03T09:54:24.323Z,36.14
2022-11-03T09:56:52.432Z,35.87
2022-11-03T09:59:23.120Z,35.41
2022-11-03T10:01:53.607Z,34.97
2022-11-03T10:04:28.069Z,35.46
2022-11-03T10:06:57.131Z,34.84
2022-11-03T10:09:27.179Z,34.89
2022-11-03T10:11:56.775Z,35.34
2022-11-03T10:14:26.439Z,34.73
2022-11-03T10:17:00.295Z,34.53
2022-11-03T10:19:28.482Z,34.80
2022-11-03T10:21:56.546Z,35.47
2022-11-03T10:24:24.639Z,35.00
2022-11-03T10:26:54.747Z,34.94
2022-11-03T10:29:26.569Z,34.58
2022-11-03T10:31:56.940Z,34.60
2022-11-03T10:34:28.329Z,35.21
2022-11-03T10:37:17.367Z,35.06
2022-11-03T10:39:46.394Z,34.99
2022-11-03T10:42:22.536Z,35.59
2022-11-03T10:44:54.912Z,35.51
2022-11-03T10:47:26.836Z,34.62
2022-11-03T10:49:56.358Z,35.33
2022-11-03T10:52:26.518Z,34.99
2022-11-03T10:54:56.969Z,35.97
2022-11-03T10:57:26.213Z,35.38
2022-11-03T10:59:56.036Z,35.59
2022-11-03T11:02:26.989Z,35.09
2022-11-03T11:05:00.889Z,34.32
2022-11-03T11:07:34.243Z,34.93
2022-11-03T11:10:08.712Z,34.78
2022-11-03T11:12:37.086Z,35.25
2022-11-03T11:15:39.182Z,35.15
2022-11-03T11:18:07.641Z,34.76
2022-11-03T11:20:40.319Z,34.33
2022-11-03T11:23:44.656Z,34.39
2022-11-03T11:26:19.059Z,34.52
2022-11-03T11:29:08.243Z,34.67
2022-11-03T11:31:38.302Z,34.21
2022-11-03T11:34:40.612Z,34.62
2022-11-03T11:37:36.922Z,35.09
2022-11-03T11:40:14.216Z,35.34
2022-11-03T11:43:18.102Z,34.30
2022-11-03T11:46:23.083Z,35.20
2022-11-03T11:49:16.818Z,34.57
2022-11-03T11:51:44.828Z,34.88
2022-11-03T11:54:18.567Z,35.08
2022-11-03T11:56:49.279Z,34.81
2022-11-03T11:59:24.351Z,34.52
2022-11-03T12:01:55.128Z,34.69
2022-11-03T12:04:27.840Z,35.21
2022-11-03T12:06:57.487Z,35.20
2022-11-03T12:09:28.152Z,34.51
2022-11-03T12:12:00.488Z,34.79
2022-11-03T12:14:36.076Z,34.96
2022-11-03T12:17:34.521Z,35.46
2022-11-03T12:20:36.820Z,35.01
2022-11-03T12:23:04.836Z,34.59
2022-11-03T12:25:36.158Z,35.03
2022-11-03T12:28:04.673Z,35.18
2022-11-03T12:30:39.480Z,34.82
2022-11-03T12:33:08.380Z,34.80
2022-11-03T12:35:38.696Z,34.96
2022-11-03T12:38:06.750Z,34.80
2022-11-03T12:40:34.918Z,35.01
2022-11-03T12:43:02.965Z,34.93
2022-11-03T12:45:30.966Z,34.74
2022-11-03T12:47:59.218Z,34.47
2022-11-03T12:50:27.522Z,34.29
2022-11-03T12:52:56.877Z,34.35
2022-11-03T12:55:25.010Z,34.66
2022-11-03T12:57:53.287Z,34.47
2022-11-03T13:00:21.700Z,34.57
2022-11-03T13:02:50.652Z,34.75
2022-11-03T13:05:18.824Z,35.28
2022-11-03T13:07:46.838Z,34.99
2022-11-03T13:10:16.796Z,34.92
2022-11-03T13:12:45.383Z,34.75
2022-11-03T13:15:16.015Z,34.74
2022-11-03T13:18:13.046Z,34.85
2022-11-03T13:20:32.865Z,35.02
2022-11-03T13:23:01.262Z,34.75
2022-11-03T13:25:31.077Z,35.08
2022-11-03T13:27:59.768Z,35.13
2022-11-03T13:30:28.887Z,35.56
2022-11-03T13:32:57.116Z,35.05
2022-11-03T13:36:20.335Z,35.94
2022-11-03T13:38:48.489Z,35.55
2022-11-03T13:41:18.009Z,35.56
2022-11-03T13:43:46.155Z,35.41
2022-11-03T13:46:14.252Z,35.62
2022-11-03T13:51:30.713Z,36.38
2022-11-03T13:59:36.790Z,37.12
2022-11-03T14:04:55.229Z,37.25
2022-11-03T14:07:23.359Z,37.37
2022-11-03T14:09:52.513Z,37.81
2022-11-03T14:12:35.193Z,37.48
2022-11-03T14:15:05.317Z,37.65
2022-11-03T14:17:33.945Z,37.35
2022-11-03T14:20:04.642Z,37.75
2022-11-03T14:22:33.446Z,37.79
2022-11-03T14:25:02.238Z,38.27
2022-11-03T14:27:31.899Z,38.15
2022-11-03T14:30:00.118Z,38.12
2022-11-03T14:32:28.316Z,38.21
2022-11-03T14:34:56.501Z,38.24
2022-11-03T14:37:25.684Z,38.45
2022-11-03T14:39:54.104Z,38.30
2022-11-03T14:42:21.415Z,38.83
2022-11-03T14:47:26.441Z,39.13
2022-11-03T14:49:54.658Z,39.51
2022-11-03T14:52:22.962Z,39.43
2022-11-03T14:54:52.246Z,39.71
2022-11-03T14:57:20.358Z,39.83
2022-11-03T14:59:53.247Z,40.37
2022-11-03T15:02:23.318Z,40.11
2022-11-03T15:04:51.454Z,40.04
2022-11-03T15:07:19.708Z,40.17
2022-11-03T15:09:48.604Z,40.44
2022-11-03T15:12:16.878Z,40.70
2022-11-03T15:14:44.976Z,40.73
2022-11-03T15:17:13.209Z,40.67
2022-11-03T15:19:42.731Z,40.82
2022-11-03T15:22:11.044Z,41.17
2022-11-03T15:27:27.267Z,41.27
2022-11-03T15:29:55.400Z,41.56
2022-11-03T15:32:23.509Z,41.87
2022-11-03T15:34:52.961Z,41.73
2022-11-03T15:37:21.217Z,42.19
2022-11-03T15:39:49.294Z,42.10
2022-11-03T15:42:17.476Z,42.27
2022-11-03T15:44:45.660Z,42.44
2022-11-03T15:47:14.039Z,42.69
2022-11-03T15:49:42.111Z,42.65
2022-11-03T15:52:11.781Z,43.00
2022-11-03T15:54:42.597Z,43.15
2022-11-03T15:57:11.036Z,43.30
2022-11-03T15:59:40.179Z,43.65
2022-11-03T16:02:27.615Z,44.11
2022-11-03T16:04:57.513Z,44.20
2022-11-03T16:07:27.429Z,44.59
2022-11-03T16:09:56.445Z,44.89
2022-11-03T16:12:25.257Z,44.91
2022-11-03T16:14:53.751Z,45.19
2022-11-03T16:17:22.912Z,45.44
2022-11-03T16:19:51.285Z,45.26
2022-11-03T16:22:19.419Z,45.78
2022-11-03T16:24:48.897Z,46.50
2022-11-03T16:27:17.093Z,46.84
2022-11-03T16:29:45.519Z,47.42
2022-11-03T16:32:13.608Z,48.01
2022-11-03T16:34:41.667Z,48.43
2022-11-03T16:37:09.773Z,48.41
2022-11-03T16:39:39.194Z,49.01
2022-11-03T16:42:08.724Z,49.57
2022-11-03T16:44:36.839Z,49.54
2022-11-03T16:47:05.031Z,49.70
2022-11-03T16:49:33.126Z,50.14
2022-11-03T16:52:01.723Z,50.02
2022-11-03T16:54:29.982Z,49.84
2022-11-03T16:56:58.064Z,50.13
2022-11-03T16:59:27.512Z,50.41
2022-11-03T17:01:56.962Z,50.79
2022-11-03T17:04:25.304Z,51.13
2022-11-03T17:06:53.355Z,50.92
2022-11-03T17:09:21.826Z,51.45
2022-11-03T17:11:50.027Z,51.12
2022-11-03T17:14:18.157Z,51.12
2022-11-03T17:16:48.776Z,51.43
2022-11-03T17:19:17.299Z,51.78
2022-11-03T17:21:45.558Z,52.13
2022-11-03T17:24:13.753Z,52.45
2022-11-03T17:26:51.770Z,52.89
2022-11-03T17:29:23.653Z,52.91
2022-11-03T17:31:53.217Z,52.74
2022-11-03T17:34:25.228Z,53.41
2022-11-03T17:36:54.378Z,53.59
2022-11-03T17:39:29.170Z,53.80
2022-11-03T17:42:06.761Z,54.10
2022-11-03T17:44:34.806Z,53.70
2022-11-03T17:47:04.270Z,53.80
2022-11-03T17:49:33.637Z,53.93
2022-11-03T17:52:02.602Z,54.33
2022-11-03T17:54:32.141Z,54.80
2022-11-03T17:57:02.835Z,55.18
2022-11-03T17:59:31.393Z,54.85
2022-11-03T18:01:59.867Z,55.38
2022-11-03T18:04:29.681Z,56.18
2022-11-03T18:06:57.782Z,56.16
2022-11-03T18:09:25.962Z,56.31
2022-11-03T18:12:11.986Z,56.77
2022-11-03T18:14:40.203Z,57.29
2022-11-03T18:17:11.084Z,57.71
2022-11-03T18:19:40.957Z,57.70
2022-11-03T18:22:10.590Z,57.66
2022-11-03T18:24:38.730Z,57.75
2022-11-03T18:27:12.046Z,57.49
2022-11-03T18:29:40.214Z,57.24
2022-11-03T18:32:16.013Z,57.58
2022-11-03T18:34:46.489Z,58.07
2022-11-03T18:37:14.668Z,57.99
2022-11-03T18:39:42.870Z,58.36
2022-11-03T18:42:15.344Z,58.47
2022-11-03T18:44:44.793Z,58.83
2022-11-03T18:47:12.925Z,59.43
2022-11-03T18:49:41.062Z,59.58
2022-11-03T18:52:15.090Z,59.90
2022-11-03T18:54:47.173Z,59.62
2022-11-03T18:57:16.881Z,59.95
2022-11-03T18:59:45.952Z,60.30
2022-11-03T19:02:19.136Z,60.72
2022-11-03T19:04:48.098Z,61.00
2022-11-03T19:07:24.359Z,61.18
2022-11-03T19:09:53.135Z,61.38
2022-11-03T19:12:21.994Z,61.34
2022-11-03T19:14:51.361Z,61.36
2022-11-03T19:17:24.031Z,61.34
2022-11-03T19:19:54.041Z,61.26
2022-11-03T19:22:24.706Z,61.48
2022-11-03T19:24:53.125Z,61.31
2022-11-03T19:27:25.626Z,61.21
2022-11-03T19:29:54.325Z,61.60
2022-11-03T19:32:26.331Z,61.44
2022-11-03T19:35:00.179Z,61.65
2022-11-03T19:37:35.178Z,61.66
2022-11-03T19:40:06.113Z,62.21
2022-11-03T19:42:36.936Z,62.83
2022-11-03T19:45:07.836Z,63.40
2022-11-03T19:47:39.756Z,63.23
2022-11-03T19:50:18.772Z,63.95
2022-11-03T19:52:50.326Z,64.11
2022-11-03T19:55:21.449Z,64.33
2022-11-03T19:57:49.556Z,64.02
2022-11-03T20:00:20.101Z,64.28
2022-11-03T20:02:48.300Z,64.71
2022-11-03T20:05:18.808Z,65.12
2022-11-03T20:07:49.416Z,65.59
2022-11-03T20:10:21.675Z,65.90
2022-11-03T20:12:51.643Z,65.72
2022-11-03T20:15:21.826Z,66.42
2022-11-03T20:17:55.022Z,66.79
2022-11-03T20:20:26.922Z,67.32
2022-11-03T20:22:59.813Z,67.12
2022-11-03T20:25:29.852Z,67.74
2022-11-03T20:27:59.068Z,68.06
2022-11-03T20:30:29.245Z,68.27
2022-11-03T20:32:57.396Z,68.77
2022-11-03T20:35:27.928Z,69.23
2022-11-03T20:37:59.578Z,69.39
2022-11-03T20:40:31.572Z,69.53
2022-11-03T20:43:03.110Z,70.17
2022-11-03T20:45:31.997Z,70.95
2022-11-03T20:48:00.467Z,71.53
2022-11-03T20:50:33.230Z,71.84
2022-11-03T20:53:03.004Z,72.32
2022-11-03T20:55:31.197Z,72.00
2022-11-03T20:57:59.854Z,71.74
2022-11-03T21:00:28.679Z,72.40
2022-11-03T21:02:57.473Z,71.89
2022-11-03T21:05:27.832Z,72.18
2022-11-03T21:07:56.775Z,72.09
2022-11-03T21:10:26.303Z,72.83
2022-11-03T21:12:55.132Z,72.92
2022-11-03T21:16:03.736Z,72.78
2022-11-03T21:18:54.479Z,72.73
2022-11-03T21:21:23.203Z,73.10
2022-11-03T21:23:51.296Z,73.54
2022-11-03T21:26:20.837Z,73.56
2022-11-03T21:28:48.935Z,73.06
2022-11-03T21:31:17.124Z,72.96
2022-11-03T21:33:45.319Z,73.12
2022-11-03T21:36:13.911Z,73.64
2022-11-03T21:38:59.340Z,73.51
2022-11-03T21:41:46.372Z,73.44
2022-11-03T21:44:17.225Z,73.30
2022-11-03T21:46:46.773Z,73.30
2022-11-03T21:49:32.741Z,73.17
2022-11-03T21:52:00.888Z,73.63
2022-11-03T21:54:28.942Z,73.41
2022-11-03T21:56:58.475Z,73.10
2022-11-03T21:59:26.521Z,73.00
2022-11-03T22:01:55.289Z,73.27
2022-11-03T22:04:24.313Z,73.66
2022-11-03T22:06:55.499Z,74.06
2022-11-03T22:09:24.571Z,74.58
2022-11-03T22:11:53.022Z,74.17
2022-11-03T22:14:22.690Z,74.07
2022-11-03T22:16:49.855Z,74.27
2022-11-03T22:19:37.320Z,75.63
2022-11-03T22:22:24.430Z,75.97
2022-11-03T22:25:10.093Z,76.47
2022-11-03T22:27:38.231Z,76.98
2022-11-03T22:30:26.259Z,77.45
2022-11-03T22:32:56.044Z,77.46
2022-11-03T22:35:43.166Z,78.01
2022-11-03T22:38:13.038Z,77.63
2022-11-03T22:41:00.345Z,77.24
2022-11-03T22:43:46.801Z,77.41
2022-11-03T22:46:18.381Z,78.09
2022-11-03T22:48:46.464Z,78.65
2022-11-03T22:51:16.944Z,78.81
2022-11-03T22:54:10.818Z,78.81
2022-11-03T22:56:39.917Z,80.20
2022-11-03T22:59:08.748Z,80.20
2022-11-03T23:01:38.374Z,80.45
2022-11-03T23:04:07.840Z,80.88
2022-11-03T23:06:37.641Z,81.27
2022-11-03T23:09:06.217Z,81.19
2022-11-03T23:11:35.323Z,81.36
2022-11-03T23:14:05.374Z,81.80
2022-11-03T23:16:35.135Z,82.09
2022-11-03T23:19:22.748Z,82.77
2022-11-03T23:21:52.816Z,83.31
2022-11-03T23:24:42.152Z,83.96
2022-11-03T23:27:13.950Z,84.06
2022-11-03T23:29:42.293Z,84.38
2022-11-03T23:32:10.452Z,84.45
2022-11-03T23:34:40.761Z,84.86
2022-11-03T23:37:08.847Z,85.44
2022-11-03T23:39:37.015Z,85.81
2022-11-03T23:42:05.439Z,86.28
2022-11-03T23:44:55.116Z,86.84
2022-11-03T23:47:40.765Z,87.42
2022-11-03T23:50:10.589Z,86.70
2022-11-03T23:52:38.659Z,87.39
2022-11-03T23:55:07.600Z,88.12
2022-11-03T23:57:53.087Z,88.85
